Gildeskaal — LLDI — position and weather

sailwx.info

Track history (hours):
 
Tides and Currents Weather Stations Pressure Air Temp Water Temp Dewpoint Dewpoint Depression Visibility Wind Speed Wind Dir Waves Ship Positions

Gildeskaal

Last reported at 2016-Sep-28 16:33 UTC. Time now 2016-Sep-28 18:48 UTC.
Position N 67°05' E 013°59'.

Length 52 m; draft 3.2 m.

Type: Ship. MMSI: 259680000.

Date/timePositionNaut miles runAvg speedWind from/ knotsBaromVisibWave heightAir tempDewpointWater temp
2016-Sep-28 16:33N 67°05' E 013°59'3 2.7
2016-Sep-28 15:33N 67°08' E 013°59'0 0.0
2016-Sep-28 12:33N 67°08' E 013°59'0 0.0
2016-Sep-28 08:33N 67°08' E 013°59'0 0.0
2016-Sep-28 03:33N 67°08' E 013°59'0 0.0
2016-Sep-28 02:33N 67°08' E 013°59'0 0.0
2016-Sep-28 01:33N 67°08' E 013°59'0 0.0
2016-Sep-27 23:33N 67°08' E 013°59'0 0.0
2016-Sep-27 19:33N 67°08' E 013°59'3 0.7
2016-Sep-27 14:33N 67°05' E 014°02'0 0.3
2016-Sep-27 13:33N 67°05' E 014°03'2 0.5
2016-Sep-27 10:33N 67°06' E 013°59'3 0.3
2016-Sep-27 00:33N 67°08' E 013°59'0 0.0
2016-Sep-26 20:33N 67°08' E 013°59'0 0.0
2016-Sep-26 19:33N 67°08' E 013°59'0 0.0
2016-Sep-26 15:33N 67°08' E 013°59'4 2.1
2016-Sep-26 13:31N 67°05' E 014°04'4 0.9
2016-Sep-26 08:33N 67°08' E 013°59'0 0.0
2016-Sep-26 02:33N 67°08' E 013°59'0 0.0
2016-Sep-26 01:33N 67°08' E 013°59'0 0.0
2016-Sep-26 00:33N 67°08' E 013°59'0 0.0
2016-Sep-25 21:33N 67°08' E 013°59'3 0.8
2016-Sep-25 17:24N 67°05' E 014°01'2 2.3
2016-Sep-25 16:33N 67°07' E 013°59'3 2.8
2016-Sep-25 15:31N 67°05' E 014°04'4 4.4
2016-Sep-25 14:33N 67°08' E 013°59'1 0.2
2016-Sep-25 07:33N 67°07' E 013°59'3 0.5
2016-Sep-25 00:26N 67°04' E 014°04'1 0.2
2016-Sep-24 14:33N 67°05' E 014°01'1 0.8
2016-Sep-24 12:33N 67°04' E 014°04'2 0.8
2016-Sep-24 09:33N 67°06' E 013°59'2 0.4
2016-Sep-24 03:33N 67°08' E 013°59'0 0.0
2016-Sep-24 02:33N 67°08' E 013°59'0 0.0
2016-Sep-24 01:33N 67°08' E 013°59'0 0.0
2016-Sep-24 00:33N 67°08' E 013°59'0 0.0
2016-Sep-23 19:33N 67°08' E 013°59'1 0.6
2016-Sep-23 17:33N 67°07' E 013°59'1 0.7
2016-Sep-23 15:32N 67°06' E 013°59'1 0.6
2016-Sep-23 13:30N 67°05' E 014°02'2 0.4
2016-Sep-23 09:33N 67°06' E 013°59'2 0.4
2016-Sep-23 04:33N 67°08' E 013°59'0 0.0
2016-Sep-23 03:33N 67°08' E 013°59'0 0.0
2016-Sep-23 02:33N 67°08' E 013°59'0 0.0
2016-Sep-23 01:33N 67°08' E 013°59'0 0.0
2016-Sep-23 00:33N 67°08' E 013°59'0 0.0
2016-Sep-22 23:33N 67°08' E 013°59'0 0.0
2016-Sep-22 20:33N 67°08' E 013°59'0 0.0
2016-Sep-22 12:33N 67°08' E 013°59'0 0.0
2016-Sep-22 04:33N 67°08' E 013°59'0 0.0
2016-Sep-22 03:33N 67°08' E 013°59'0 0.0
2016-Sep-22 00:33N 67°08' E 013°59'0 0.0
2016-Sep-21 23:33N 67°08' E 013°59'0 0.0
2016-Sep-21 22:33N 67°08' E 013°59'0 0.0
2016-Sep-21 19:33N 67°08' E 013°59'3 1.0
2016-Sep-21 16:33N 67°05' E 013°60'1 0.1
2016-Sep-21 09:33N 67°06' E 013°59'2 2.1
2016-Sep-21 08:33N 67°08' E 013°59'3 1.1
2016-Sep-21 05:33N 67°05' E 014°02'3 1.7
2016-Sep-21 03:33N 67°08' E 013°59'0 0.0
2016-Sep-21 02:33N 67°08' E 013°59'2 0.3
2016-Sep-20 17:32N 67°06' E 013°59'1 0.4
2016-Sep-20 14:33N 67°05' E 014°01'0 0.2
2016-Sep-20 13:27N 67°05' E 014°01'1 0.3
2016-Sep-20 10:33N 67°06' E 013°60'3 1.3
2016-Sep-20 08:33N 67°08' E 013°59'2 1.7
2016-Sep-20 07:33N 67°07' E 013°59'2 0.3
2016-Sep-20 02:33N 67°08' E 013°59'0 0.0
2016-Sep-19 23:33N 67°08' E 013°59'0 0.0
2016-Sep-19 19:33N 67°08' E 013°59'4 3.9
2016-Sep-19 18:32N 67°05' E 014°04'2 1.0
2016-Sep-19 16:33N 67°06' E 013°59'2 0.6
2016-Sep-19 13:27N 67°05' E 014°04'4 4.3
2016-Sep-19 12:34N 67°08' E 013°58'2 0.7
2016-Sep-19 09:33N 67°06' E 013°59'0 0.2
2016-Sep-19 07:33N 67°06' E 013°59'2 0.5
2016-Sep-19 03:33N 67°08' E 013°59'0 0.0
2016-Sep-19 02:33N 67°08' E 013°59'0 0.0
2016-Sep-19 00:33N 67°08' E 013°59'0 0.0
2016-Sep-18 19:33N 67°08' E 013°59'  
Track history (hours):
 
Tides and Currents Weather Stations Pressure Air Temp Water Temp Dewpoint Dewpoint Depression Visibility Wind Speed Wind Dir Waves Ship Positions

Gildeskaal

Last reported at 2016-Sep-28 16:33 UTC. Time now 2016-Sep-28 18:48 UTC.
Position N 67°05' E 013°59'.

Length 52 m; draft 3.2 m.

Type: Ship. MMSI: 259680000.

Date/timePositionNaut miles runAvg speedWind from/ knotsBaromVisibWave heightAir tempDewpointWater temp
2016-Sep-28 16:33N 67°05' E 013°59'3 2.7
2016-Sep-28 15:33N 67°08' E 013°59'0 0.0
2016-Sep-28 12:33N 67°08' E 013°59'0 0.0
2016-Sep-28 08:33N 67°08' E 013°59'0 0.0
2016-Sep-28 03:33N 67°08' E 013°59'0 0.0
2016-Sep-28 02:33N 67°08' E 013°59'0 0.0
2016-Sep-28 01:33N 67°08' E 013°59'0 0.0
2016-Sep-27 23:33N 67°08' E 013°59'0 0.0
2016-Sep-27 19:33N 67°08' E 013°59'3 0.7
2016-Sep-27 14:33N 67°05' E 014°02'0 0.3
2016-Sep-27 13:33N 67°05' E 014°03'2 0.5
2016-Sep-27 10:33N 67°06' E 013°59'3 0.3
2016-Sep-27 00:33N 67°08' E 013°59'0 0.0
2016-Sep-26 20:33N 67°08' E 013°59'0 0.0
2016-Sep-26 19:33N 67°08' E 013°59'0 0.0
2016-Sep-26 15:33N 67°08' E 013°59'4 2.1
2016-Sep-26 13:31N 67°05' E 014°04'4 0.9
2016-Sep-26 08:33N 67°08' E 013°59'0 0.0
2016-Sep-26 02:33N 67°08' E 013°59'0 0.0
2016-Sep-26 01:33N 67°08' E 013°59'0 0.0
2016-Sep-26 00:33N 67°08' E 013°59'0 0.0
2016-Sep-25 21:33N 67°08' E 013°59'3 0.8
2016-Sep-25 17:24N 67°05' E 014°01'2 2.3
2016-Sep-25 16:33N 67°07' E 013°59'3 2.8
2016-Sep-25 15:31N 67°05' E 014°04'4 4.4
2016-Sep-25 14:33N 67°08' E 013°59'1 0.2
2016-Sep-25 07:33N 67°07' E 013°59'3 0.5
2016-Sep-25 00:26N 67°04' E 014°04'1 0.2
2016-Sep-24 14:33N 67°05' E 014°01'1 0.8
2016-Sep-24 12:33N 67°04' E 014°04'2 0.8
2016-Sep-24 09:33N 67°06' E 013°59'2 0.4
2016-Sep-24 03:33N 67°08' E 013°59'0 0.0
2016-Sep-24 02:33N 67°08' E 013°59'0 0.0
2016-Sep-24 01:33N 67°08' E 013°59'0 0.0
2016-Sep-24 00:33N 67°08' E 013°59'0 0.0
2016-Sep-23 19:33N 67°08' E 013°59'1 0.6
2016-Sep-23 17:33N 67°07' E 013°59'1 0.7
2016-Sep-23 15:32N 67°06' E 013°59'1 0.6
2016-Sep-23 13:30N 67°05' E 014°02'2 0.4
2016-Sep-23 09:33N 67°06' E 013°59'2 0.4
2016-Sep-23 04:33N 67°08' E 013°59'0 0.0
2016-Sep-23 03:33N 67°08' E 013°59'0 0.0
2016-Sep-23 02:33N 67°08' E 013°59'0 0.0
2016-Sep-23 01:33N 67°08' E 013°59'0 0.0
2016-Sep-23 00:33N 67°08' E 013°59'0 0.0
2016-Sep-22 23:33N 67°08' E 013°59'0 0.0
2016-Sep-22 20:33N 67°08' E 013°59'0 0.0
2016-Sep-22 12:33N 67°08' E 013°59'0 0.0
2016-Sep-22 04:33N 67°08' E 013°59'0 0.0
2016-Sep-22 03:33N 67°08' E 013°59'0 0.0
2016-Sep-22 00:33N 67°08' E 013°59'0 0.0
2016-Sep-21 23:33N 67°08' E 013°59'0 0.0
2016-Sep-21 22:33N 67°08' E 013°59'0 0.0
2016-Sep-21 19:33N 67°08' E 013°59'3 1.0
2016-Sep-21 16:33N 67°05' E 013°60'1 0.1
2016-Sep-21 09:33N 67°06' E 013°59'2 2.1
2016-Sep-21 08:33N 67°08' E 013°59'3 1.1
2016-Sep-21 05:33N 67°05' E 014°02'3 1.7
2016-Sep-21 03:33N 67°08' E 013°59'0 0.0
2016-Sep-21 02:33N 67°08' E 013°59'2 0.3
2016-Sep-20 17:32N 67°06' E 013°59'1 0.4
2016-Sep-20 14:33N 67°05' E 014°01'0 0.2
2016-Sep-20 13:27N 67°05' E 014°01'1 0.3
2016-Sep-20 10:33N 67°06' E 013°60'3 1.3
2016-Sep-20 08:33N 67°08' E 013°59'2 1.7
2016-Sep-20 07:33N 67°07' E 013°59'2 0.3
2016-Sep-20 02:33N 67°08' E 013°59'0 0.0
2016-Sep-19 23:33N 67°08' E 013°59'0 0.0
2016-Sep-19 19:33N 67°08' E 013°59'4 3.9
2016-Sep-19 18:32N 67°05' E 014°04'2 1.0
2016-Sep-19 16:33N 67°06' E 013°59'2 0.6
2016-Sep-19 13:27N 67°05' E 014°04'4 4.3
2016-Sep-19 12:34N 67°08' E 013°58'2 0.7
2016-Sep-19 09:33N 67°06' E 013°59'0 0.2
2016-Sep-19 07:33N 67°06' E 013°59'2 0.5
2016-Sep-19 03:33N 67°08' E 013°59'0 0.0
2016-Sep-19 02:33N 67°08' E 013°59'0 0.0
2016-Sep-19 00:33N 67°08' E 013°59'0 0.0
2016-Sep-18 19:33N 67°08' E 013°59'  

Dump ship's entire track history